Time;durP1;ratioP1;P1;durP2;ratioP2;P2;SDS_P1;SDS_P2;PMS_P1;PMS_P2;Temp;Humidity;BMP_temperature;BMP_pressure;BME280_temperature;BME280_humidity;BME280_pressure;Samples;Min_cycle;Max_cycle;Signal;HPM_P1;HPM_P2
2022/08/15 00:00:37;;;;;;;16.00;9.88;;;22.80;65.10;;;;;;5073648;28;20035;-83
2022/08/15 00:03:04;;;;;;;16.42;9.88;;;22.70;65.00;;;;;;5074388;28;20070;-82
2022/08/15 00:05:33;;;;;;;11.98;9.35;;;22.70;65.50;;;;;;5068918;28;20017;-81
2022/08/15 00:07:59;;;;;;;12.02;10.13;;;22.70;65.70;;;;;;5074460;28;20035;-83
2022/08/15 00:10:25;;;;;;;18.17;10.50;;;22.70;65.80;;;;;;5074096;28;20031;-83
2022/08/15 00:12:51;;;;;;;16.58;10.75;;;22.70;65.40;;;;;;5074630;28;20100;-83
2022/08/15 00:15:19;;;;;;;12.07;9.88;;;22.70;65.40;;;;;;5073685;28;20438;-83
2022/08/15 00:17:48;;;;;;;18.92;10.88;;;22.70;65.50;;;;;;5074541;28;20031;-83
2022/08/15 00:20:15;;;;;;;16.45;11.20;;;22.70;65.70;;;;;;5072639;28;20105;-82
2022/08/15 00:22:46;;;;;;;16.20;11.18;;;22.70;65.90;;;;;;5071773;28;20036;-82
2022/08/15 00:25:13;;;;;;;20.58;11.40;;;22.60;65.80;;;;;;5074474;28;20507;-82
2022/08/15 00:27:38;;;;;;;13.63;9.80;;;22.60;66.40;;;;;;5073799;28;20174;-83
2022/08/15 00:30:05;;;;;;;23.40;12.40;;;22.60;66.50;;;;;;5072119;28;20112;-83
2022/08/15 00:32:33;;;;;;;15.65;11.07;;;22.60;66.40;;;;;;5059521;28;20016;-82
2022/08/15 00:34:59;;;;;;;14.30;10.98;;;22.60;66.50;;;;;;5073062;28;20366;-83
2022/08/15 00:37:25;;;;;;;13.40;11.60;;;22.60;66.10;;;;;;5073119;28;20025;-82
2022/08/15 00:39:51;;;;;;;18.35;12.38;;;22.60;66.00;;;;;;5070642;28;20103;-81
2022/08/15 00:42:23;;;;;;;13.27;11.70;;;22.60;65.80;;;;;;5073304;28;20116;-83
2022/08/15 00:44:49;;;;;;;17.42;12.25;;;22.60;65.80;;;;;;5072742;28;20382;-81
2022/08/15 00:47:20;;;;;;;14.85;11.80;;;22.60;65.80;;;;;;5072750;28;20020;-82
2022/08/15 00:49:46;;;;;;;16.58;12.90;;;22.60;66.00;;;;;;5073340;28;20020;-80
2022/08/15 00:52:26;;;;;;;16.53;12.37;;;22.60;66.10;;;;;;5074176;28;20025;-81
2022/08/15 00:55:05;;;;;;;14.32;12.75;;;22.60;66.20;;;;;;5072848;28;20023;-79
2022/08/15 00:57:41;;;;;;;16.10;13.50;;;22.60;66.30;;;;;;5071630;28;20384;-81
2022/08/15 01:00:16;;;;;;;17.52;14.15;;;22.50;66.50;;;;;;5073012;28;20104;-81
2022/08/15 01:02:42;;;;;;;16.85;13.57;;;22.50;66.80;;;;;;5072299;28;20041;-81
2022/08/15 01:05:12;;;;;;;14.75;13.35;;;22.50;67.10;;;;;;5072274;28;20046;-82
2022/08/15 01:07:38;;;;;;;17.08;13.57;;;22.40;67.30;;;;;;5072204;28;20028;-80
2022/08/15 01:10:06;;;;;;;18.98;14.35;;;22.40;67.70;;;;;;5072299;28;20020;-81
2022/08/15 01:12:32;;;;;;;18.60;14.57;;;22.40;67.80;;;;;;5067058;28;20390;-80
2022/08/15 01:15:04;;;;;;;19.10;13.77;;;22.30;68.10;;;;;;5070534;28;20527;-80
2022/08/15 01:17:32;;;;;;;15.55;13.85;;;22.30;68.20;;;;;;5072098;28;20120;-81
2022/08/15 01:20:07;;;;;;;15.68;14.18;;;22.30;68.40;;;;;;5072827;28;20021;-81
2022/08/15 01:22:51;;;;;;;19.20;14.27;;;22.30;68.60;;;;;;5073622;28;20039;-81
2022/08/15 01:25:23;;;;;;;14.73;13.23;;;22.30;68.50;;;;;;5071500;28;20386;-83
2022/08/15 01:28:04;;;;;;;17.00;14.30;;;22.20;68.80;;;;;;5070897;28;20066;-82
2022/08/15 01:30:38;;;;;;;16.02;13.23;;;22.20;69.10;;;;;;5090751;28;20393;-83
2022/08/15 01:33:05;;;;;;;20.75;16.00;;;22.10;69.60;;;;;;5072213;28;20063;-82
2022/08/15 01:35:31;;;;;;;18.25;15.13;;;22.10;69.90;;;;;;5072353;28;20100;-83
2022/08/15 01:37:58;;;;;;;20.20;15.40;;;22.00;70.00;;;;;;5073840;28;20115;-82
2022/08/15 01:40:50;;;;;;;20.55;15.30;;;22.00;70.40;;;;;;5071804;28;20471;-82
2022/08/15 01:43:22;;;;;;;19.20;15.32;;;22.00;70.40;;;;;;5071890;28;20425;-81
2022/08/15 01:45:49;;;;;;;20.25;16.20;;;21.90;70.70;;;;;;5071493;28;20103;-80
2022/08/15 01:48:25;;;;;;;19.52;14.63;;;21.90;71.10;;;;;;5072557;28;20052;-80
2022/08/15 01:50:56;;;;;;;20.33;14.90;;;21.90;71.30;;;;;;5071749;28;20016;-81
2022/08/15 01:53:31;;;;;;;21.70;17.10;;;;;;;;;;5071862;28;20024;-81
2022/08/15 01:56:09;;;;;;;19.40;17.30;;;21.90;71.50;;;;;;5071802;28;20067;-80
2022/08/15 01:58:40;;;;;;;20.70;16.63;;;21.80;71.90;;;;;;5071656;28;20033;-81
2022/08/15 02:01:08;;;;;;;25.55;17.52;;;;;;;;;;5059406;28;20028;-82
2022/08/15 02:03:35;;;;;;;23.08;19.38;;;21.80;72.50;;;;;;5071786;28;20039;-81
2022/08/15 02:06:09;;;;;;;22.05;19.40;;;21.70;72.70;;;;;;5071578;28;20016;-80
2022/08/15 02:08:37;;;;;;;21.63;18.75;;;21.70;73.10;;;;;;5071967;28;20032;-81
2022/08/15 02:11:09;;;;;;;24.23;19.27;;;21.60;73.50;;;;;;5071687;28;20024;-82
2022/08/15 02:13:36;;;;;;;25.70;19.05;;;21.60;73.70;;;;;;5070709;28;20036;-82
2022/08/15 02:16:03;;;;;;;21.95;19.70;;;21.60;73.90;;;;;;5070591;28;20024;-81
2022/08/15 02:18:29;;;;;;;23.10;19.73;;;21.60;74.10;;;;;;5071266;28;20534;-82
2022/08/15 02:20:57;;;;;;;22.17;19.48;;;21.50;74.30;;;;;;5071525;28;20033;-84
2022/08/15 02:23:23;;;;;;;27.48;22.48;;;21.50;74.50;;;;;;5071116;28;20028;-81
2022/08/15 02:25:50;;;;;;;25.42;22.75;;;21.50;74.70;;;;;;5071498;28;20378;-81
2022/08/15 02:28:16;;;;;;;;;;;21.50;75.50;;;;;;5071770;28;20053;-80
2022/08/15 02:30:42;;;;;;;26.90;21.83;;;21.50;74.10;;;;;;5071054;28;19908;-81
2022/08/15 02:33:08;;;;;;;26.08;21.73;;;21.50;75.10;;;;;;5071955;28;20048;-83
2022/08/15 02:35:34;;;;;;;28.13;22.70;;;21.40;75.30;;;;;;5072163;28;20156;-81
2022/08/15 02:38:04;;;;;;;24.92;21.55;;;21.50;75.50;;;;;;5074731;28;20028;-82
2022/08/15 02:40:31;;;;;;;23.50;20.77;;;21.50;75.70;;;;;;5108148;28;20024;-82
2022/08/15 02:43:03;;;;;;;23.80;21.10;;;21.50;75.80;;;;;;5076008;28;20104;-82
2022/08/15 02:45:37;;;;;;;35.28;22.65;;;21.60;76.00;;;;;;5075385;28;20047;-82
2022/08/15 02:48:10;;;;;;;25.92;21.45;;;21.60;75.80;;;;;;5068014;28;20024;-81
2022/08/15 02:50:36;;;;;;;24.65;20.33;;;21.60;75.70;;;;;;5074177;28;20020;-82
2022/08/15 02:53:14;;;;;;;27.23;21.42;;;21.70;75.70;;;;;;5075257;28;20020;-81
2022/08/15 02:55:42;;;;;;;28.83;23.80;;;21.80;75.70;;;;;;5075498;28;20055;-83
2022/08/15 02:58:10;;;;;;;31.50;23.20;;;21.80;75.40;;;;;;5061597;28;20024;-82
2022/08/15 03:00:37;;;;;;;28.80;23.70;;;21.80;75.30;;;;;;5075745;28;20025;-82
2022/08/15 03:03:06;;;;;;;30.27;25.23;;;21.80;75.90;;;;;;5073612;28;20036;-83
2022/08/15 03:05:34;;;;;;;30.13;24.88;;;21.80;75.30;;;;;;5065264;28;20033;-84
2022/08/15 03:08:00;;;;;;;33.60;24.90;;;21.90;76.00;;;;;;5071804;28;20024;-82
2022/08/15 03:10:26;;;;;;;31.10;26.17;;;21.90;75.20;;;;;;5076104;28;20623;-82
2022/08/15 03:12:56;;;;;;;28.38;25.52;;;21.90;75.20;;;;;;5078398;28;20028;-81
2022/08/15 03:15:25;;;;;;;27.70;24.52;;;21.90;75.40;;;;;;5085054;28;20400;-80
2022/08/15 03:17:52;;;;;;;25.73;22.83;;;21.90;75.40;;;;;;5074954;28;20386;-82
2022/08/15 03:20:19;;;;;;;28.17;25.27;;;21.90;75.60;;;;;;5073127;28;20031;-82
2022/08/15 03:22:48;;;;;;;30.05;25.48;;;21.90;75.60;;;;;;5066737;28;20314;-82
2022/08/15 03:25:16;;;;;;;29.20;25.00;;;21.90;75.60;;;;;;5073931;28;20020;-82
2022/08/15 03:27:43;;;;;;;31.60;25.13;;;22.00;75.60;;;;;;5062691;28;20130;-82
2022/08/15 03:30:11;;;;;;;28.88;25.05;;;22.00;75.50;;;;;;5070104;28;20070;-82
2022/08/15 03:32:44;;;;;;;34.55;24.58;;;22.10;75.50;;;;;;5074000;28;20127;-81
2022/08/15 03:35:10;;;;;;;29.15;25.55;;;22.30;75.90;;;;;;5073935;28;20052;-83
2022/08/15 03:37:37;;;;;;;28.60;25.58;;;22.40;74.90;;;;;;5073217;28;20619;-82
2022/08/15 03:40:05;;;;;;;31.13;25.77;;;22.40;74.50;;;;;;5073732;28;20040;-81
2022/08/15 03:42:30;;;;;;;29.42;26.42;;;22.40;74.50;;;;;;5073855;28;20433;-81
2022/08/15 03:44:56;;;;;;;34.67;26.80;;;22.50;74.50;;;;;;5074011;28;20020;-82
2022/08/15 03:47:22;;;;;;;31.77;26.30;;;22.50;74.40;;;;;;5073725;28;20446;-82
2022/08/15 03:49:49;;;;;;;27.27;24.38;;;22.50;74.30;;;;;;5073522;28;20428;-80
2022/08/15 03:52:15;;;;;;;;;;;22.50;74.50;;;;;;5074837;28;20368;-81
2022/08/15 03:54:41;;;;;;;31.10;24.83;;;22.40;74.80;;;;;;5072720;28;19908;-81
2022/08/15 03:57:07;;;;;;;31.45;26.50;;;22.40;74.70;;;;;;5073630;28;20024;-81
2022/08/15 03:59:33;;;;;;;35.05;26.25;;;22.40;74.80;;;;;;5074066;28;20013;-84
2022/08/15 04:02:00;;;;;;;28.35;24.20;;;22.40;74.90;;;;;;5073539;28;20405;-83
2022/08/15 04:04:26;;;;;;;34.42;22.70;;;22.50;74.90;;;;;;5073691;28;20546;-83
2022/08/15 04:06:52;;;;;;;27.60;22.52;;;22.60;74.20;;;;;;5073767;28;20032;-83
2022/08/15 04:09:18;;;;;;;27.75;23.88;;;22.60;74.00;;;;;;5072921;28;20025;-82
2022/08/15 04:11:44;;;;;;;27.42;23.10;;;22.60;74.20;;;;;;5074985;28;20027;-82
2022/08/15 04:14:10;;;;;;;30.17;23.02;;;22.70;74.20;;;;;;5074085;28;20017;-84
2022/08/15 04:16:36;;;;;;;29.73;24.77;;;22.80;74.30;;;;;;5073690;28;20020;-83
2022/08/15 04:19:02;;;;;;;25.42;21.55;;;22.90;73.90;;;;;;5106062;28;20027;-84
2022/08/15 04:21:28;;;;;;;31.17;23.03;;;23.10;74.40;;;;;;5073147;28;20036;-83
2022/08/15 04:23:54;;;;;;;28.08;21.73;;;23.30;72.90;;;;;;5100686;28;20100;-82
2022/08/15 04:26:20;;;;;;;23.80;20.35;;;23.50;72.00;;;;;;5067966;28;20489;-83
2022/08/15 04:28:46;;;;;;;24.83;21.00;;;23.70;71.50;;;;;;5054344;28;20470;-83
2022/08/15 04:31:16;;;;;;;25.63;21.27;;;23.80;70.90;;;;;;5061456;28;20025;-84
2022/08/15 04:33:41;;;;;;;26.90;20.17;;;23.90;70.80;;;;;;5094755;28;20025;-82
2022/08/15 04:36:10;;;;;;;30.05;20.10;;;24.00;70.30;;;;;;5052957;28;20051;-83
2022/08/15 04:38:43;;;;;;;24.50;21.10;;;24.00;70.20;;;;;;5056159;28;20524;-83
2022/08/15 04:41:10;;;;;;;25.60;20.13;;;24.10;69.50;;;;;;5053753;28;20026;-84
2022/08/15 04:43:37;;;;;;;;;;;24.20;69.30;;;;;;5057383;28;20025;-83
2022/08/15 04:46:04;;;;;;;28.95;23.40;;;24.30;69.30;;;;;;5057114;28;20315;-82
2022/08/15 04:48:31;;;;;;;26.73;20.83;;;24.30;68.90;;;;;;5059972;28;20537;-83
2022/08/15 04:50:58;;;;;;;27.55;20.70;;;24.90;68.10;;;;;;5069292;28;20389;-84
2022/08/15 04:53:27;;;;;;;30.20;19.13;;;25.50;65.60;;;;;;5073332;28;20093;-83
2022/08/15 04:55:54;;;;;;;22.15;19.65;;;26.30;63.30;;;;;;5073249;28;20094;-84
2022/08/15 04:58:20;;;;;;;31.80;19.88;;;27.00;61.60;;;;;;5073664;28;20032;-82
2022/08/15 05:01:11;;;;;;;31.95;20.70;;;27.80;59.40;;;;;;5072054;28;20074;-82
2022/08/15 05:03:38;;;;;;;33.03;21.52;;;28.40;58.40;;;;;;5071688;28;20125;-82
2022/08/15 05:06:08;;;;;;;28.08;20.77;;;28.80;56.30;;;;;;5060609;28;20486;-84
2022/08/15 05:08:37;;;;;;;27.73;21.25;;;29.40;55.00;;;;;;5072483;28;20121;-82
2022/08/15 05:11:15;;;;;;;27.60;20.58;;;29.90;54.10;;;;;;5071854;28;20037;-81
2022/08/15 05:13:42;;;;;;;24.27;20.38;;;30.20;53.20;;;;;;5072822;28;20466;-82
2022/08/15 05:16:08;;;;;;;;;;;30.60;51.60;;;;;;5072555;28;20020;-83
2022/08/15 05:18:40;;;;;;;25.05;21.23;;;31.00;52.80;;;;;;5072382;28;19928;-84
2022/08/15 05:21:09;;;;;;;32.53;23.17;;;31.30;50.50;;;;;;5072186;28;20059;-83
2022/08/15 05:23:37;;;;;;;25.63;23.02;;;31.60;49.40;;;;;;5059380;28;20040;-82
2022/08/15 05:26:05;;;;;;;26.77;23.80;;;32.00;48.20;;;;;;5059873;28;20025;-84
2022/08/15 05:28:31;;;;;;;34.00;22.13;;;32.20;47.50;;;;;;5056774;28;20040;-84
2022/08/15 05:30:59;;;;;;;28.23;21.70;;;32.30;47.40;;;;;;5066113;28;20020;-83
2022/08/15 05:33:27;;;;;;;29.08;20.10;;;32.60;47.00;;;;;;5058415;28;20033;-82
2022/08/15 05:35:56;;;;;;;24.58;20.73;;;32.90;46.10;;;;;;5053018;28;20059;-83
2022/08/15 05:38:38;;;;;;;25.02;20.00;;;33.30;45.80;;;;;;5052832;28;20104;-82
2022/08/15 05:41:07;;;;;;;28.92;19.05;;;33.80;45.20;;;;;;5053003;28;20059;-83
2022/08/15 05:44:16;;;;;;;27.90;19.15;;;34.70;42.90;;;;;;5058785;28;20468;-84
2022/08/15 05:46:50;;;;;;;23.20;17.27;;;34.90;44.00;;;;;;5009662;28;20225;-83
2022/08/15 05:49:33;;;;;;;25.85;18.35;;;35.20;43.10;;;;;;5008169;28;20062;-83
2022/08/15 05:52:13;;;;;;;20.80;15.20;;;36.10;42.00;;;;;;5007278;28;20046;-84
2022/08/15 05:55:03;;;;;;;19.83;15.90;;;36.80;41.30;;;;;;5007035;28;20489;-84
2022/08/15 05:57:47;;;;;;;21.35;15.25;;;37.20;40.20;;;;;;5005302;28;20147;-86
2022/08/15 06:00:15;;;;;;;26.10;19.60;;;37.80;39.60;;;;;;5001136;28;20046;-87
2022/08/15 06:02:49;;;;;;;28.48;19.17;;;38.10;38.50;;;;;;5005697;28;20037;-87
2022/08/15 06:05:31;;;;;;;24.63;18.98;;;38.20;38.60;;;;;;5000617;28;20042;-86
2022/08/15 06:07:59;;;;;;;25.75;20.52;;;38.30;38.30;;;;;;5008175;28;20018;-89
2022/08/15 06:10:38;;;;;;;22.23;19.63;;;38.80;37.70;;;;;;5010083;28;20061;-87
2022/08/15 06:13:09;;;;;;;26.60;20.05;;;39.20;37.20;;;;;;5002284;28;20030;-87
2022/08/15 06:16:02;;;;;;;21.75;19.45;;;38.60;36.50;;;;;;5004368;28;20478;-86
2022/08/15 06:18:30;;;;;;;25.10;19.05;;;38.50;37.10;;;;;;5059945;28;20029;-89
2022/08/15 06:21:05;;;;;;;23.83;18.00;;;;;;;;;;5062223;28;20016;-87
2022/08/15 06:23:50;;;;;;;22.10;17.05;;;;;;;;;;5057161;28;20136;-89
2022/08/15 06:26:22;;;;;;;23.02;18.42;;;;;;;;;;5058262;28;20351;-88
2022/08/15 06:28:48;;;;;;;29.10;18.23;;;;;;;;;;5057200;28;20491;-86
2022/08/15 06:31:31;;;;;;;19.25;15.65;;;;;;;;;;5060701;28;20067;-87
2022/08/15 06:34:17;;;;;;;19.80;14.20;;;;;;;;;;5067688;28;20021;-87
2022/08/15 06:36:47;;;;;;;16.35;9.18;;;;;;;;;;5062763;28;20053;-89
2022/08/15 06:39:25;;;;;;;15.13;11.30;;;;;;;;;;5055817;28;20017;-86
2022/08/15 06:41:54;;;;;;;13.85;10.63;;;;;;;;;;5055624;28;20037;-87
2022/08/15 06:44:21;;;;;;;11.02;8.98;;;;;;;;;;5057176;28;20037;-88
2022/08/15 06:46:49;;;;;;;6.20;4.10;;;41.60;33.10;;;;;;5069188;28;20078;-87
2022/08/15 06:49:19;;;;;;;5.38;3.95;;;42.30;30.70;;;;;;5058973;28;20410;-86
2022/08/15 06:51:47;;;;;;;6.10;4.60;;;41.70;30.50;;;;;;5076666;28;20743;-86
2022/08/15 06:54:40;;;;;;;7.82;5.07;;;41.10;31.40;;;;;;5074916;28;20040;-88
2022/08/15 06:57:33;;;;;;;6.50;4.40;;;40.40;32.30;;;;;;5080001;28;20059;-88
2022/08/15 07:00:03;;;;;;;8.10;4.53;;;40.80;32.10;;;;;;5080065;28;20024;-88
2022/08/15 07:02:50;;;;;;;7.50;4.53;;;40.90;31.60;;;;;;5061721;28;20032;-86
2022/08/15 07:05:41;;;;;;;10.02;5.75;;;40.80;31.90;;;;;;5064233;28;20067;-87
2022/08/15 07:08:33;;;;;;;8.48;4.05;;;40.70;32.00;;;;;;5075062;28;20028;-88
2022/08/15 07:11:28;;;;;;;12.70;5.03;;;40.20;32.10;;;;;;5070811;28;20044;-86
2022/08/15 07:13:54;;;;;;;9.40;4.63;;;40.90;32.50;;;;;;5070668;28;20020;-86
2022/08/15 07:16:32;;;;;;;9.43;4.25;;;42.20;31.40;;;;;;5076431;28;20036;-87
2022/08/15 07:19:00;;;;;;;8.18;4.65;;;42.90;30.90;;;;;;5075943;28;20024;-88
2022/08/15 07:21:26;;;;;;;11.85;4.72;;;43.80;30.60;;;;;;5076197;28;20077;-86
2022/08/15 07:23:58;;;;;;;;;;;44.50;30.00;;;;;;5076048;28;20032;-86
2022/08/15 07:26:27;;;;;;;11.60;5.50;;;44.50;30.50;;;;;;5075904;28;20261;-87
2022/08/15 07:28:56;;;;;;;8.73;4.70;;;44.90;29.60;;;;;;5072520;28;20028;-88
2022/08/15 07:31:28;;;;;;;11.35;4.60;;;;;;;;;;5063700;28;20366;-87
2022/08/15 07:33:56;;;;;;;8.52;4.30;;;;;;;;;;5062500;28;20469;-86
2022/08/15 07:36:28;;;;;;;7.18;4.53;;;;;;;;;;5077018;28;20020;-86
2022/08/15 07:38:55;;;;;;;11.88;4.97;;;;;;;;;;5077408;28;20013;-87
2022/08/15 07:41:33;;;;;;;6.47;4.30;;;45.30;29.40;;;;;;5077898;28;20059;-90
2022/08/15 07:44:00;;;;;;;7.88;4.65;;;44.60;29.80;;;;;;5075304;28;20064;-86
2022/08/15 07:46:44;;;;;;;5.88;4.10;;;44.50;29.50;;;;;;5077579;28;20070;-85
2022/08/15 07:49:17;;;;;;;4.80;3.72;;;44.50;29.70;;;;;;5078504;28;20054;-88
2022/08/15 07:52:03;;;;;;;8.20;3.95;;;44.60;29.30;;;;;;5078906;28;20025;-90
2022/08/15 07:54:37;;;;;;;9.90;3.90;;;45.10;29.30;;;;;;5078338;28;20031;-89
2022/08/15 07:57:06;;;;;;;7.05;3.70;;;45.30;28.80;;;;;;5072469;28;20036;-89
2022/08/15 07:59:35;;;;;;;5.43;3.17;;;45.60;28.80;;;;;;5113627;28;20021;-88
2022/08/15 08:02:19;;;;;;;6.03;3.22;;;46.10;28.60;;;;;;5073542;28;20048;-88
2022/08/15 08:04:45;;;;;;;6.18;4.40;;;;;;;;;;5070785;28;20032;-86
2022/08/15 08:07:11;;;;;;;6.30;3.97;;;;;;;;;;5079929;28;20030;-87
2022/08/15 08:09:52;;;;;;;7.47;5.35;;;;;;;;;;5074668;28;20377;-88
2022/08/15 08:12:45;;;;;;;10.02;3.75;;;;;;;;;;5074906;28;20101;-88
2022/08/15 08:15:12;;;;;;;6.80;4.90;;;;;;;;;;5040882;28;20096;-86
2022/08/15 08:17:59;;;;;;;5.30;3.70;;;;;;;;;;5062924;28;20064;-87
2022/08/15 08:20:46;;;;;;;6.47;3.92;;;46.30;28.50;;;;;;5061779;28;20040;-86
2022/08/15 08:23:19;;;;;;;5.93;3.55;;;44.30;28.90;;;;;;5073971;28;20032;-87
2022/08/15 08:26:06;;;;;;;9.32;3.80;;;44.00;29.10;;;;;;5073720;28;20116;-86
2022/08/15 08:28:55;;;;;;;9.63;3.92;;;43.60;29.30;;;;;;5073235;28;20044;-85
2022/08/15 08:31:26;;;;;;;5.97;2.95;;;42.80;29.60;;;;;;5075863;28;20073;-86
2022/08/15 08:34:39;;;;;;;6.78;3.08;;;41.10;29.90;;;;;;5077673;28;20023;-86
2022/08/15 08:37:05;;;;;;;6.35;3.72;;;40.90;30.50;;;;;;5054377;28;20045;-86
2022/08/15 08:39:36;;;;;;;;;;;42.00;29.90;;;;;;5073877;28;20367;-86
2022/08/15 08:42:18;;;;;;;7.85;2.92;;;43.20;29.90;;;;;;5073663;28;20031;-88
2022/08/15 08:45:04;;;;;;;5.95;3.00;;;44.10;28.80;;;;;;5073731;28;20027;-86
2022/08/15 08:47:36;;;;;;;5.35;2.83;;;;;;;;;;5060317;28;20020;-85
2022/08/15 08:50:03;;;;;;;6.40;2.70;;;;;;;;;;5072772;28;20048;-87
2022/08/15 08:52:32;;;;;;;4.85;2.53;;;;;;;;;;5071737;28;20070;-86
2022/08/15 08:54:58;;;;;;;5.00;2.70;;;;;;;;;;5056588;28;20078;-86
2022/08/15 08:57:26;;;;;;;6.32;2.63;;;;;;;;;;5065619;28;20481;-87
2022/08/15 08:59:52;;;;;;;7.25;2.55;;;;;;;;;;5073839;28;20385;-86
2022/08/15 09:02:25;;;;;;;5.50;2.78;;;;;;;;;;5073590;28;20090;-88
2022/08/15 09:04:56;;;;;;;6.50;2.22;;;;;;;;;;5077953;28;20012;-84
2022/08/15 09:07:28;;;;;;;5.97;2.95;;;;;;;;;;5081212;28;20031;-86
2022/08/15 09:09:55;;;;;;;6.15;2.45;;;;;;;;;;5075857;28;20062;-86
2022/08/15 09:15:26;;;;;;;7.20;3.38;;;44.00;26.70;;;;;;5068450;28;20165;-87
2022/08/15 09:17:56;;;;;;;9.40;4.35;;;43.30;27.80;;;;;;5087778;28;20020;-86
2022/08/15 09:20:32;;;;;;;8.27;5.63;;;43.40;28.40;;;;;;5084702;28;20025;-85
2022/08/15 09:23:00;;;;;;;7.10;3.03;;;43.40;27.90;;;;;;5079878;28;20036;-87
2022/08/15 09:25:28;;;;;;;4.95;2.67;;;43.80;28.00;;;;;;5067131;28;20021;-86
2022/08/15 09:28:16;;;;;;;7.18;3.28;;;44.50;27.70;;;;;;5071089;28;20041;-86
2022/08/15 09:30:46;;;;;;;5.18;2.53;;;45.20;27.20;;;;;;5060946;28;20016;-86
2022/08/15 09:33:29;;;;;;;8.63;2.85;;;45.10;27.30;;;;;;5071724;28;20034;-86
2022/08/15 09:36:22;;;;;;;3.85;3.10;;;45.20;27.10;;;;;;5072766;28;20074;-87
2022/08/15 09:39:25;;;;;;;8.32;2.95;;;45.60;26.80;;;;;;5072771;28;20017;-85
2022/08/15 09:41:57;;;;;;;7.07;2.72;;;45.20;27.00;;;;;;5073077;28;20124;-87
2022/08/15 09:44:39;;;;;;;3.97;2.30;;;44.50;26.70;;;;;;5074138;28;20028;-86
2022/08/15 09:47:34;;;;;;;6.15;3.30;;;43.20;27.10;;;;;;5074453;28;20082;-85
2022/08/15 09:50:25;;;;;;;5.32;3.13;;;40.60;27.70;;;;;;5073421;28;20027;-85
2022/08/15 09:53:03;;;;;;;5.72;3.88;;;40.00;28.90;;;;;;5070550;28;20059;-86
2022/08/15 09:55:46;;;;;;;6.80;3.67;;;39.20;29.20;;;;;;5073142;28;20068;-85
2022/08/15 09:58:52;;;;;;;7.00;3.63;;;38.60;29.60;;;;;;5073670;28;20017;-86
2022/08/15 10:01:28;;;;;;;6.55;4.40;;;37.90;30.10;;;;;;5068842;28;20017;-85
2022/08/15 10:04:01;;;;;;;6.60;3.70;;;37.40;31.10;;;;;;5073453;28;20032;-87
2022/08/15 10:06:33;;;;;;;8.73;3.58;;;37.10;31.30;;;;;;5072972;28;20009;-86
2022/08/15 10:08:59;;;;;;;4.55;3.42;;;36.70;31.80;;;;;;5072066;28;20028;-86
2022/08/15 10:11:51;;;;;;;6.20;3.42;;;36.40;31.70;;;;;;5072896;28;20027;-85
2022/08/15 10:14:20;;;;;;;8.65;3.47;;;36.50;32.30;;;;;;5071944;28;20047;-85
2022/08/15 10:16:55;;;;;;;7.57;4.72;;;36.90;32.50;;;;;;5068372;28;20089;-86
2022/08/15 10:19:30;;;;;;;10.10;4.45;;;37.10;31.90;;;;;;5070637;28;20245;-85
2022/08/15 10:22:02;;;;;;;5.53;3.83;;;36.90;32.10;;;;;;5071569;28;20017;-86
2022/08/15 10:24:36;;;;;;;8.70;6.63;;;36.50;32.10;;;;;;5072392;28;20028;-86
2022/08/15 10:27:09;;;;;;;10.32;4.85;;;36.10;32.30;;;;;;5072538;28;20051;-86
2022/08/15 10:29:39;;;;;;;7.25;4.68;;;35.70;33.10;;;;;;5070640;28;20103;-86
2022/08/15 10:32:18;;;;;;;9.95;5.72;;;35.40;33.20;;;;;;5068414;28;20111;-86
2022/08/15 10:35:15;;;;;;;10.95;6.82;;;35.40;33.30;;;;;;5071597;28;20033;-86
2022/08/15 10:37:51;;;;;;;12.95;9.25;;;35.40;32.90;;;;;;5058446;28;20032;-86
2022/08/15 10:40:55;;;;;;;;;;;35.30;33.10;;;;;;5072879;28;20023;-86
2022/08/15 10:43:40;;;;;;;12.68;7.47;;;35.20;33.00;;;;;;5030294;28;20004;-86
2022/08/15 10:46:38;;;;;;;15.52;8.02;;;35.00;33.50;;;;;;5030110;28;20458;-85
2022/08/15 10:49:13;;;;;;;14.65;8.35;;;34.70;33.50;;;;;;5024341;28;20112;-85
2022/08/15 10:52:18;;;;;;;10.45;6.70;;;34.50;34.10;;;;;;5029540;28;20061;-85
2022/08/15 10:55:17;;;;;;;8.43;6.72;;;34.40;34.40;;;;;;5029919;28;20040;-85
2022/08/15 10:58:09;;;;;;;13.40;6.78;;;34.40;34.40;;;;;;5016309;28;20057;-86
2022/08/15 11:01:06;;;;;;;12.20;7.18;;;33.90;35.10;;;;;;5033134;28;20087;-87
2022/08/15 11:03:58;;;;;;;9.85;6.65;;;33.40;35.20;;;;;;5032389;28;20049;-86
2022/08/15 11:06:25;;;;;;;9.50;6.03;;;32.80;36.50;;;;;;5033747;28;20053;-85
2022/08/15 11:09:17;;;;;;;10.38;6.68;;;32.40;36.90;;;;;;5019506;28;20029;-87
2022/08/15 11:11:57;;;;;;;16.20;14.25;;;32.10;37.10;;;;;;5028580;28;20079;-84
2022/08/15 11:14:31;;;;;;;16.77;14.85;;;31.90;37.20;;;;;;5049047;28;20040;-86
2022/08/15 11:17:01;;;;;;;20.30;15.60;;;31.70;37.70;;;;;;5065359;28;20025;-85
2022/08/15 11:19:38;;;;;;;15.65;13.75;;;31.50;37.90;;;;;;5071745;28;20020;-86
2022/08/15 11:22:17;;;;;;;18.33;13.90;;;31.50;37.90;;;;;;5061960;28;20024;-87
2022/08/15 11:24:54;;;;;;;12.30;10.90;;;31.50;38.30;;;;;;5076512;28;20435;-86
2022/08/15 11:27:24;;;;;;;14.43;10.13;;;31.50;38.50;;;;;;5071536;28;20056;-87
2022/08/15 11:29:52;;;;;;;9.50;8.55;;;31.40;38.70;;;;;;5076178;28;20176;-86
2022/08/15 11:32:38;;;;;;;11.32;8.77;;;31.20;38.80;;;;;;5074802;28;20024;-87
2022/08/15 11:35:25;;;;;;;10.32;9.02;;;31.00;38.90;;;;;;5074451;28;20025;-89
2022/08/15 11:37:54;;;;;;;11.95;9.27;;;30.80;39.60;;;;;;5064333;28;20043;-87
2022/08/15 11:40:29;;;;;;;12.55;10.10;;;30.70;39.70;;;;;;5059766;28;20032;-86
2022/08/15 11:42:57;;;;;;;20.58;12.35;;;30.70;39.90;;;;;;5066528;28;20032;-86
2022/08/15 11:45:35;;;;;;;14.98;10.52;;;30.70;39.90;;;;;;5071349;28;20021;-86
2022/08/15 11:48:01;;;;;;;15.23;11.15;;;30.60;39.90;;;;;;5074458;28;20093;-85
2022/08/15 11:50:37;;;;;;;15.88;11.70;;;30.50;40.20;;;;;;5073512;28;20020;-87
2022/08/15 11:53:06;;;;;;;16.57;11.67;;;30.20;40.20;;;;;;5069171;28;20025;-86
2022/08/15 11:55:35;;;;;;;19.42;15.73;;;30.20;40.60;;;;;;5069225;28;20031;-88
2022/08/15 11:58:29;;;;;;;19.58;16.13;;;30.10;40.60;;;;;;5078979;28;20024;-85
2022/08/15 12:00:57;;;;;;;20.63;16.30;;;29.80;40.90;;;;;;5085292;28;20036;-87
2022/08/15 12:03:35;;;;;;;24.50;17.48;;;29.70;41.30;;;;;;5095198;28;20439;-87
2022/08/15 12:06:13;;;;;;;18.42;14.77;;;29.80;41.00;;;;;;5094203;28;20009;-86
2022/08/15 12:08:42;;;;;;;22.23;15.88;;;29.90;40.90;;;;;;5087059;28;20096;-86
2022/08/15 12:11:15;;;;;;;22.20;15.98;;;29.60;41.10;;;;;;5073077;28;20021;-87
2022/08/15 12:13:56;;;;;;;24.08;15.82;;;29.70;41.40;;;;;;5082398;28;20021;-86
2022/08/15 12:16:45;;;;;;;18.70;13.27;;;29.80;41.50;;;;;;5076418;28;20074;-85
2022/08/15 12:19:30;;;;;;;14.55;11.93;;;29.90;41.90;;;;;;5076212;28;20025;-87
2022/08/15 12:21:58;;;;;;;14.45;10.65;;;30.00;41.20;;;;;;5074721;28;20070;-89
2022/08/15 12:24:28;;;;;;;12.85;10.57;;;30.10;41.30;;;;;;5074759;28;20028;-88
2022/08/15 12:26:57;;;;;;;12.10;10.23;;;29.90;41.50;;;;;;5073032;28;20044;-87
2022/08/15 12:29:24;;;;;;;20.73;11.20;;;29.90;41.90;;;;;;5075161;28;20489;-85
2022/08/15 12:31:50;;;;;;;;;;;29.90;42.30;;;;;;5076696;28;20063;-86
2022/08/15 12:34:26;;;;;;;13.35;10.40;;;29.90;41.60;;;;;;5075054;28;19915;-86
2022/08/15 12:36:53;;;;;;;9.32;8.27;;;29.80;41.60;;;;;;5074197;28;20066;-86
2022/08/15 12:39:20;;;;;;;14.85;7.32;;;29.60;41.20;;;;;;5077980;28;20051;-86
2022/08/15 12:41:50;;;;;;;10.75;7.15;;;29.70;41.10;;;;;;5072234;28;20033;-86
2022/08/15 12:44:24;;;;;;;11.18;8.15;;;29.80;40.70;;;;;;5075979;28;20062;-88
2022/08/15 12:46:55;;;;;;;10.82;7.60;;;29.70;41.00;;;;;;5073142;28;20024;-86
2022/08/15 12:49:21;;;;;;;12.13;8.57;;;29.80;40.90;;;;;;5072610;28;20025;-86
2022/08/15 12:51:47;;;;;;;13.43;9.65;;;29.60;41.20;;;;;;5066320;28;20028;-86
2022/08/15 12:54:14;;;;;;;13.10;7.95;;;29.70;41.80;;;;;;5073120;28;20068;-85
2022/08/15 12:56:43;;;;;;;9.80;8.65;;;29.70;41.70;;;;;;5065871;28;20024;-88
2022/08/15 12:59:09;;;;;;;11.13;8.73;;;29.80;42.70;;;;;;5067406;28;20025;-86
2022/08/15 13:01:40;;;;;;;12.20;9.05;;;29.80;41.90;;;;;;5073377;28;20025;-88
2022/08/15 13:04:10;;;;;;;13.82;9.30;;;29.70;41.90;;;;;;5071864;28;20036;-86
2022/08/15 13:06:52;;;;;;;11.48;8.45;;;29.70;42.10;;;;;;5069681;28;20043;-87
2022/08/15 13:09:24;;;;;;;12.05;9.23;;;29.70;42.20;;;;;;5068004;28;20103;-86
2022/08/15 13:11:50;;;;;;;12.35;8.85;;;29.70;42.40;;;;;;5092316;28;20531;-88
2022/08/15 13:14:18;;;;;;;9.17;8.27;;;29.60;42.60;;;;;;5072573;28;20063;-88
2022/08/15 13:16:46;;;;;;;14.18;9.10;;;29.60;42.70;;;;;;5075591;28;20360;-87
2022/08/15 13:19:19;;;;;;;11.35;8.60;;;29.40;42.90;;;;;;5075863;28;20028;-88